Terminal Aerodrome Forecast
Issued by NWS

Home | Current Version | Previous Version | Text Only | Print | Product List | Glossary On
Versions: 1 2 3 4 5 6 7 8 9 10 11 12 13 14 15 16 17 18 19 20 21
929
FTUS43 KPAH 271625 CCA
TAFCGI
TAF COR
KCGI 271625Z 2716/2812 23012G20KT P6SM VCSH SCT015 BKN040
      TEMPO 2717/2718 4SM -SHRA OVC015
     FM271800 21008KT P6SM VCTS BKN040CB
      TEMPO 2718/2722 2SM TSRA BR OVC025CB
     FM280000 32004KT P6SM BKN035
     FM280600 34006KT 4SM BR OVC015=

USA.gov is the U.S. government's official web portal to all federal, state and local government web resources and services.